This is the latest recevied weather packets stored in our database for station/object MB7UEL. If no packets are shown the sender has not sent any weather packets the latest 1 day(s).
| Time | Temp. | Humidity | Pressure | Rain* | Wind** | Luminosity | Snow |
|---|---|---|---|---|---|---|---|
| 1836274097 | 13.89° C | - | 1010 hPa | 0 mm | 4.92 m/s, 241° | - | - |
| 1778058306 | 7.22° C | - | 1019 hPa | 0 mm | 3.58 m/s, 75° | - | - |
| 1778056505 | 6.67° C | - | 1019 hPa | 0 mm | 3.58 m/s, 64° | - | - |
| 1778054705 | 6.67° C | - | 1019 hPa | 0 mm | 3.58 m/s, 64° | - | - |
| 1778052905 | 6.67° C | - | 1019 hPa | 0 mm | 4.02 m/s, 52° | - | - |
| 1778051105 | 6.67° C | - | 1019 hPa | 0 mm | 4.02 m/s, 52° | - | - |
| 1778049305 | 6.67° C | - | 1019 hPa | 0 mm | 4.02 m/s, 43° | - | - |
| 1778047505 | 6.67° C | - | 1019 hPa | 0 mm | 4.47 m/s, 38° | - | - |
| 1778045705 | 6.67° C | - | 1019 hPa | 0 mm | 4.47 m/s, 27° | - | - |
| 1778043905 | 6.67° C | - | 1019 hPa | 0 mm | 4.47 m/s, 27° | - | - |
| 1778042106 | 6.67° C | - | 1019 hPa | 0 mm | 3.13 m/s, 26° | - | - |
| 1778040306 | 6.67° C | - | 1019 hPa | 0 mm | 3.13 m/s, 26° | - | - |
| 1778038506 | 7.22° C | - | 1019 hPa | 0 mm | 2.24 m/s, 49° | - | - |
| 1778036706 | 7.22° C | - | 1019 hPa | 0 mm | 2.24 m/s, 49° | - | - |
| 1778034906 | 7.22° C | - | 1019 hPa | 0 mm | 3.13 m/s, 69° | - | - |
| 1778033106 | 7.22° C | - | 1019 hPa | 0 mm | 3.13 m/s, 69° | - | - |
| 1778031305 | 7.22° C | - | 1019 hPa | 0 mm | 3.13 m/s, 72° | - | - |
| 1778029506 | 7.22° C | - | 1019 hPa | 0 mm | 3.13 m/s, 72° | - | - |
| 1778027705 | 7.78° C | - | 1020 hPa | 0 mm | 3.58 m/s, 73° | - | - |
| 1778025905 | 7.22° C | - | 1020 hPa | 0 mm | 4.02 m/s, 62° | - | - |
| 1778024105 | 7.78° C | - | 1020 hPa | 0 mm | 4.92 m/s, 69° | - | - |
| 1778022305 | 7.78° C | - | 1020 hPa | 0 mm | 4.92 m/s, 69° | - | - |
| 1778020505 | 7.78° C | - | 1020 hPa | 0 mm | 5.81 m/s, 69° | - | - |
| 1778018705 | 7.78° C | - | 1020 hPa | 0 mm | 5.81 m/s, 69° | - | - |
| 1778016905 | 7.78° C | - | 1020 hPa | 0 mm | 5.81 m/s, 76° | - | - |
* Rain latest hour (hover to see other rain measurements)
** Current wind speed in m/s (hover to see current wind gust speed)